createdAt,value
2017-12-23T00:01:33.763Z,4.20
2017-12-23T00:04:44.122Z,4.20
2017-12-23T00:07:55.107Z,4.20
2017-12-23T00:11:05.955Z,4.20
2017-12-23T00:14:16.173Z,4.20
2017-12-23T00:17:26.970Z,4.20
2017-12-23T00:20:36.975Z,4.20
2017-12-23T00:23:47.034Z,4.20
2017-12-23T00:26:56.938Z,4.20
2017-12-23T00:30:07.711Z,4.10
2017-12-23T00:33:17.742Z,4.10
2017-12-23T00:36:28.066Z,4.20
2017-12-23T00:39:38.824Z,4.10
2017-12-23T00:42:49.384Z,4.20
2017-12-23T00:46:00.131Z,4.20
2017-12-23T00:49:10.231Z,4.10
2017-12-23T00:52:20.824Z,4.20
2017-12-23T00:55:31.287Z,4.20
2017-12-23T00:58:41.443Z,4.20
2017-12-23T01:01:52.039Z,4.20
2017-12-23T01:05:02.002Z,4.20
2017-12-23T01:08:11.906Z,4.10
2017-12-23T01:11:21.932Z,4.10
2017-12-23T01:14:31.962Z,4.20
2017-12-23T01:17:41.830Z,4.20
2017-12-23T01:20:51.910Z,4.20
2017-12-23T01:24:02.107Z,4.20
2017-12-23T01:27:12.125Z,4.20
2017-12-23T01:30:22.066Z,4.20
2017-12-23T01:33:32.088Z,4.20
2017-12-23T01:36:42.360Z,4.20
2017-12-23T01:39:53.061Z,4.20
2017-12-23T01:43:02.972Z,4.20
2017-12-23T01:46:13.090Z,4.20
2017-12-23T01:49:23.180Z,4.20
2017-12-23T01:52:33.595Z,4.20
2017-12-23T01:55:43.800Z,4.20
2017-12-23T01:58:54.089Z,4.20
2017-12-23T02:02:04.741Z,4.20
2017-12-23T02:05:15.359Z,4.20
2017-12-23T02:08:25.975Z,4.20
2017-12-23T02:11:36.800Z,4.20
2017-12-23T02:14:46.924Z,4.20
2017-12-23T02:17:56.803Z,4.20
2017-12-23T02:21:07.079Z,4.20
2017-12-23T02:24:16.934Z,4.20
2017-12-23T02:27:27.041Z,4.20
2017-12-23T02:30:37.036Z,4.20
2017-12-23T02:33:47.942Z,4.20
2017-12-23T02:36:58.486Z,4.20
2017-12-23T02:40:08.744Z,4.20
2017-12-23T02:43:19.365Z,4.20
2017-12-23T02:46:29.329Z,4.20
2017-12-23T02:49:39.648Z,4.20
2017-12-23T02:52:49.832Z,4.20
2017-12-23T02:56:00.501Z,4.20
2017-12-23T02:59:10.760Z,4.10
2017-12-23T03:02:20.854Z,4.20
2017-12-23T03:05:30.766Z,4.20
2017-12-23T03:08:40.775Z,4.20
2017-12-23T03:11:50.775Z,4.20
2017-12-23T03:15:00.768Z,4.20
2017-12-23T03:18:10.636Z,4.20
2017-12-23T03:21:20.509Z,4.20
2017-12-23T03:24:30.444Z,4.20
2017-12-23T03:27:40.754Z,4.20
2017-12-23T03:30:50.967Z,4.20
2017-12-23T03:34:01.568Z,4.20
2017-12-23T03:37:11.418Z,4.20
2017-12-23T03:40:21.714Z,4.20
2017-12-23T03:43:31.739Z,4.20
2017-12-23T03:46:41.904Z,4.20
2017-12-23T03:49:52.203Z,4.20
2017-12-23T03:53:02.058Z,4.20
2017-12-23T03:56:12.668Z,4.20
2017-12-23T03:59:23.228Z,4.20
2017-12-23T04:02:33.266Z,4.20
2017-12-23T04:05:43.199Z,4.20
2017-12-23T04:08:53.111Z,4.20
2017-12-23T04:12:03.221Z,4.20
2017-12-23T04:15:13.871Z,4.20
2017-12-23T04:18:23.884Z,4.20
2017-12-23T04:21:34.901Z,4.20
2017-12-23T04:24:45.080Z,4.20
2017-12-23T04:27:54.895Z,4.20
2017-12-23T04:31:05.840Z,4.20
2017-12-23T04:34:15.983Z,4.20
2017-12-23T04:37:26.647Z,4.20
2017-12-23T04:40:36.552Z,4.20
2017-12-23T04:43:46.540Z,4.20
2017-12-23T04:46:56.311Z,4.20
2017-12-23T04:50:06.381Z,4.20
2017-12-23T04:53:16.388Z,4.20
2017-12-23T04:56:26.229Z,4.20
2017-12-23T04:59:36.523Z,4.20
2017-12-23T05:02:46.563Z,4.20
2017-12-23T05:05:56.670Z,4.20
2017-12-23T05:09:06.947Z,4.20
2017-12-23T05:12:17.228Z,4.10
2017-12-23T05:15:27.239Z,4.10
2017-12-23T05:18:37.194Z,4.10
2017-12-23T05:21:47.092Z,4.10
2017-12-23T05:24:57.012Z,4.10
2017-12-23T05:28:07.101Z,4.10
2017-12-23T05:31:17.172Z,4.10
2017-12-23T05:34:27.221Z,4.10
2017-12-23T05:37:38.410Z,4.00
2017-12-23T05:40:48.398Z,4.00
2017-12-23T05:43:59.181Z,4.00
2017-12-23T05:47:09.058Z,4.00
2017-12-23T05:50:19.660Z,4.00
2017-12-23T05:53:29.502Z,4.00
2017-12-23T05:56:39.470Z,3.90
2017-12-23T05:59:49.782Z,3.90
2017-12-23T06:03:00.482Z,3.90
2017-12-23T06:06:11.818Z,3.80
2017-12-23T06:09:22.105Z,3.80
2017-12-23T06:12:32.975Z,3.70
2017-12-23T06:15:43.552Z,3.70
2017-12-23T06:18:53.317Z,3.70
2017-12-23T06:22:03.409Z,3.60
2017-12-23T06:25:13.564Z,3.70
2017-12-23T06:28:23.548Z,3.60
2017-12-23T06:31:33.417Z,3.60
2017-12-23T06:34:44.062Z,3.70
2017-12-23T06:37:54.284Z,3.70
2017-12-23T06:41:04.853Z,3.80
2017-12-23T06:44:15.603Z,3.80
2017-12-23T06:47:25.969Z,3.80
2017-12-23T06:50:35.986Z,3.80
2017-12-23T06:53:45.994Z,3.90
2017-12-23T06:56:56.032Z,3.90
2017-12-23T07:00:06.179Z,3.90
2017-12-23T07:03:16.312Z,3.90
2017-12-23T07:06:27.082Z,4.00
2017-12-23T07:09:36.847Z,4.00
2017-12-23T07:12:46.808Z,4.00
2017-12-23T07:15:56.745Z,4.10
2017-12-23T07:19:06.876Z,4.00
2017-12-23T07:22:17.053Z,4.10
2017-12-23T07:25:27.271Z,4.10
2017-12-23T07:28:37.046Z,4.10
2017-12-23T07:31:47.127Z,4.10
2017-12-23T07:34:57.800Z,4.10
2017-12-23T07:38:07.712Z,4.10
2017-12-23T07:41:18.513Z,4.20
2017-12-23T07:44:28.664Z,4.10
2017-12-23T07:47:38.741Z,4.20
2017-12-23T07:50:48.638Z,4.10
2017-12-23T07:53:59.303Z,4.20
2017-12-23T07:57:09.532Z,4.20
2017-12-23T08:00:19.526Z,4.20
2017-12-23T08:03:29.589Z,4.20
2017-12-23T08:06:41.077Z,4.30
2017-12-23T08:09:51.111Z,4.30
2017-12-23T08:13:01.037Z,4.40
2017-12-23T08:16:11.986Z,4.40
2017-12-23T08:19:22.141Z,4.40
2017-12-23T08:22:32.434Z,4.40
2017-12-23T08:28:54.338Z,4.50
2017-12-23T08:32:05.520Z,4.50
2017-12-23T08:35:15.928Z,4.50
2017-12-23T08:38:26.404Z,4.60
2017-12-23T08:41:37.122Z,4.60
2017-12-23T08:44:47.215Z,4.60
2017-12-23T08:47:57.161Z,4.70
2017-12-23T08:51:07.415Z,4.70
2017-12-23T08:54:17.298Z,4.70
2017-12-23T08:57:27.923Z,4.80
2017-12-23T09:00:37.974Z,4.80
2017-12-23T09:03:48.100Z,4.80
2017-12-23T09:06:58.364Z,4.90
2017-12-23T09:10:08.951Z,4.90
2017-12-23T09:13:19.029Z,5.00
2017-12-23T09:16:29.190Z,5.00
2017-12-23T09:19:41.650Z,5.10
2017-12-23T09:22:52.202Z,5.10
2017-12-23T09:26:03.121Z,5.20
2017-12-23T09:29:13.662Z,5.20
2017-12-23T09:32:24.573Z,5.20
2017-12-23T09:35:34.712Z,5.20
2017-12-23T09:38:45.674Z,5.30
2017-12-23T09:41:57.282Z,5.30
2017-12-23T09:45:07.676Z,5.30
2017-12-23T09:48:17.595Z,5.40
2017-12-23T09:51:27.635Z,5.40
2017-12-23T09:54:37.616Z,5.40
2017-12-23T09:57:47.786Z,5.40
2017-12-23T10:00:57.961Z,5.40
2017-12-23T10:04:07.977Z,5.50
2017-12-23T10:07:18.361Z,5.50
2017-12-23T10:10:28.333Z,5.50
2017-12-23T10:13:38.193Z,5.50
2017-12-23T10:16:49.123Z,5.60
2017-12-23T10:20:00.016Z,5.70
2017-12-23T10:23:10.556Z,5.70
2017-12-23T10:26:20.638Z,5.70
2017-12-23T10:29:31.008Z,5.80
2017-12-23T10:32:40.867Z,5.80
2017-12-23T10:35:51.219Z,5.80
2017-12-23T10:39:01.545Z,5.90
2017-12-23T10:42:11.386Z,5.90
2017-12-23T10:45:21.427Z,5.90
2017-12-23T10:48:31.580Z,6.00
2017-12-23T10:51:41.768Z,6.00
2017-12-23T10:54:52.157Z,6.00
2017-12-23T10:58:02.283Z,6.00
2017-12-23T11:01:12.695Z,6.10
2017-12-23T11:04:22.883Z,6.10
2017-12-23T11:07:33.877Z,6.10
2017-12-23T11:10:45.315Z,6.20
2017-12-23T11:13:55.365Z,6.10
2017-12-23T11:17:05.235Z,6.20
2017-12-23T11:20:15.184Z,6.20
2017-12-23T11:23:25.539Z,6.20
2017-12-23T11:26:35.504Z,6.20
2017-12-23T11:29:45.703Z,6.30
2017-12-23T11:32:56.078Z,6.30
2017-12-23T11:36:06.367Z,6.20
2017-12-23T11:39:16.693Z,6.30
2017-12-23T11:42:26.763Z,6.30
2017-12-23T11:45:36.485Z,6.30
2017-12-23T11:48:47.709Z,6.30
2017-12-23T11:51:57.896Z,6.30
2017-12-23T11:55:07.877Z,6.40
2017-12-23T11:58:19.077Z,6.40
2017-12-23T12:01:29.634Z,6.50
2017-12-23T12:04:40.719Z,6.50
2017-12-23T12:07:51.524Z,6.50
2017-12-23T12:11:01.819Z,6.60
2017-12-23T12:14:12.266Z,6.60
2017-12-23T12:17:22.477Z,6.60
2017-12-23T12:20:32.781Z,6.60
2017-12-23T12:23:48.294Z,6.60
2017-12-23T12:26:58.228Z,6.60
2017-12-23T12:30:08.808Z,6.70
2017-12-23T12:33:18.843Z,6.70
2017-12-23T12:36:29.693Z,6.70
2017-12-23T12:39:40.141Z,6.70
2017-12-23T12:42:50.125Z,6.70
2017-12-23T12:46:00.334Z,6.80
2017-12-23T12:49:11.039Z,6.80
2017-12-23T12:52:20.983Z,6.80
2017-12-23T12:55:31.401Z,6.90
2017-12-23T12:58:41.795Z,6.90
2017-12-23T13:01:53.110Z,7.00
2017-12-23T13:05:03.255Z,7.00
2017-12-23T13:08:13.322Z,7.10
2017-12-23T13:11:23.223Z,7.10
2017-12-23T13:14:33.499Z,7.10
2017-12-23T13:17:44.049Z,7.10
2017-12-23T13:20:54.159Z,7.20
2017-12-23T13:24:04.442Z,7.20
2017-12-23T13:27:14.436Z,7.30
2017-12-23T13:30:24.404Z,7.20
2017-12-23T13:33:35.162Z,7.30
2017-12-23T13:36:45.609Z,7.30
2017-12-23T13:39:55.666Z,7.30
2017-12-23T13:43:06.298Z,7.30
2017-12-23T13:46:17.283Z,7.30
2017-12-23T13:49:27.786Z,7.30
2017-12-23T13:52:37.958Z,7.30
2017-12-23T13:55:48.026Z,7.40
2017-12-23T13:58:58.045Z,7.40
2017-12-23T14:02:09.031Z,7.40
2017-12-23T14:05:19.568Z,7.40
2017-12-23T14:08:29.624Z,7.40
2017-12-23T14:11:39.954Z,7.40
2017-12-23T14:14:49.905Z,7.40
2017-12-23T14:18:00.846Z,7.30
2017-12-23T14:21:11.755Z,7.30
2017-12-23T14:24:24.007Z,7.30
2017-12-23T14:27:33.995Z,7.30
2017-12-23T14:30:44.337Z,7.30
2017-12-23T14:33:54.168Z,7.30
2017-12-23T14:37:04.127Z,7.20
2017-12-23T14:40:14.726Z,7.20
2017-12-23T14:43:25.888Z,7.20
2017-12-23T14:46:37.276Z,7.20
2017-12-23T14:49:47.699Z,7.20
2017-12-23T14:52:58.092Z,7.20
2017-12-23T14:56:08.403Z,7.10
2017-12-23T14:59:19.228Z,7.10
2017-12-23T15:02:29.890Z,7.10
2017-12-23T15:05:40.316Z,7.10
2017-12-23T15:08:50.423Z,7.10
2017-12-23T15:12:00.201Z,7.00
2017-12-23T15:15:10.841Z,7.00
2017-12-23T15:18:20.942Z,7.00
2017-12-23T15:21:31.289Z,7.00
2017-12-23T15:24:41.266Z,7.00
2017-12-23T15:27:52.078Z,7.00
2017-12-23T15:31:02.768Z,7.00
2017-12-23T15:34:12.872Z,7.00
2017-12-23T15:37:24.109Z,7.00
2017-12-23T15:40:35.370Z,7.00
2017-12-23T15:43:46.190Z,7.00
2017-12-23T15:46:56.853Z,7.00
2017-12-23T15:50:07.694Z,7.00
2017-12-23T15:53:18.910Z,7.00
2017-12-23T15:56:29.127Z,7.00
2017-12-23T15:59:39.947Z,7.00
2017-12-23T16:02:51.058Z,7.00
2017-12-23T16:06:01.444Z,7.00
2017-12-23T16:09:11.470Z,7.00
2017-12-23T16:12:21.453Z,7.00
2017-12-23T16:15:31.286Z,6.90
2017-12-23T16:18:41.516Z,7.00
2017-12-23T16:21:51.305Z,6.90
2017-12-23T16:25:01.565Z,6.90
2017-12-23T16:28:11.995Z,6.90
2017-12-23T16:31:22.372Z,6.90
2017-12-23T16:34:32.271Z,7.00
2017-12-23T16:37:42.548Z,7.00
2017-12-23T16:40:53.892Z,6.90
2017-12-23T16:44:04.328Z,6.90
2017-12-23T16:47:14.330Z,6.90
2017-12-23T16:50:24.298Z,7.00
2017-12-23T16:53:34.682Z,7.00
2017-12-23T16:56:45.155Z,6.90
2017-12-23T16:59:55.327Z,7.00
2017-12-23T17:03:05.220Z,7.00
2017-12-23T17:06:15.203Z,7.00
2017-12-23T17:09:25.076Z,7.00
2017-12-23T17:12:35.097Z,7.00
2017-12-23T17:15:45.393Z,7.00
2017-12-23T17:18:55.412Z,7.00
2017-12-23T17:22:07.460Z,7.00
2017-12-23T17:25:17.226Z,7.00
2017-12-23T17:28:38.775Z,7.00
2017-12-23T17:31:48.570Z,7.00
2017-12-23T17:34:59.037Z,7.00
2017-12-23T17:38:09.095Z,7.00
2017-12-23T17:41:19.590Z,7.00
2017-12-23T17:44:29.630Z,7.00
2017-12-23T17:47:39.765Z,7.00
2017-12-23T17:50:50.653Z,7.00
2017-12-23T17:54:00.968Z,7.00
2017-12-23T17:57:11.826Z,7.00
2017-12-23T18:00:22.318Z,7.00
2017-12-23T18:03:32.214Z,6.90
2017-12-23T18:06:42.106Z,6.90
2017-12-23T18:09:52.281Z,6.90
2017-12-23T18:13:02.547Z,6.90
2017-12-23T18:16:12.578Z,7.00
2017-12-23T18:19:22.761Z,7.00
2017-12-23T18:22:32.520Z,6.90
2017-12-23T18:25:44.074Z,6.90
2017-12-23T18:28:54.310Z,6.90
2017-12-23T18:32:04.371Z,6.90
2017-12-23T18:35:14.465Z,6.90
2017-12-23T18:38:24.771Z,6.90
2017-12-23T18:41:36.093Z,6.90
2017-12-23T18:44:47.822Z,6.90
2017-12-23T18:47:58.916Z,6.90
2017-12-23T18:51:09.179Z,6.90
2017-12-23T18:54:19.846Z,6.90
2017-12-23T18:57:29.982Z,6.90
2017-12-23T19:00:40.300Z,6.90
2017-12-23T19:03:50.136Z,6.90
2017-12-23T19:07:00.380Z,6.90
2017-12-23T19:10:11.222Z,6.90
2017-12-23T19:13:21.373Z,6.90
2017-12-23T19:16:43.050Z,6.90
2017-12-23T19:19:54.217Z,6.90
2017-12-23T19:23:04.372Z,6.90
2017-12-23T19:26:15.172Z,6.90
2017-12-23T19:29:25.577Z,6.90
2017-12-23T19:32:36.115Z,6.90
2017-12-23T19:35:46.063Z,6.90
2017-12-23T19:38:56.931Z,6.90
2017-12-23T19:42:06.900Z,6.90
2017-12-23T19:45:18.284Z,6.90
2017-12-23T19:48:29.148Z,6.90
2017-12-23T19:51:39.898Z,6.90
2017-12-23T19:54:51.025Z,6.90
2017-12-23T19:58:01.755Z,6.90
2017-12-23T20:01:12.262Z,6.90
2017-12-23T20:04:22.647Z,6.90
2017-12-23T20:07:34.355Z,6.90
2017-12-23T20:10:44.908Z,6.90
2017-12-23T20:13:54.857Z,6.90
2017-12-23T20:17:05.202Z,6.90
2017-12-23T20:20:15.252Z,6.90
2017-12-23T20:23:25.256Z,6.90
2017-12-23T20:26:35.845Z,6.80
2017-12-23T20:29:46.623Z,6.90
2017-12-23T20:32:57.096Z,6.90
2017-12-23T20:36:06.913Z,6.90
2017-12-23T20:39:17.252Z,6.80
2017-12-23T20:42:27.075Z,6.80
2017-12-23T20:45:38.377Z,6.80
2017-12-23T20:48:48.504Z,6.80
2017-12-23T20:51:58.916Z,6.80
2017-12-23T20:55:08.745Z,6.80
2017-12-23T20:58:19.217Z,6.80
2017-12-23T21:01:29.917Z,6.80
2017-12-23T21:04:40.379Z,6.80
2017-12-23T21:07:50.404Z,6.80
2017-12-23T21:11:00.729Z,6.80
2017-12-23T21:14:11.509Z,6.80
2017-12-23T21:17:22.052Z,6.80
2017-12-23T21:20:32.757Z,6.80
2017-12-23T21:23:43.118Z,6.80
2017-12-23T21:26:53.923Z,6.80
2017-12-23T21:30:03.941Z,6.80
2017-12-23T21:33:14.588Z,6.80
2017-12-23T21:36:25.050Z,6.80
2017-12-23T21:39:34.981Z,6.80
2017-12-23T21:42:45.766Z,6.80
2017-12-23T21:45:55.900Z,6.80
2017-12-23T21:49:06.443Z,6.80
2017-12-23T21:52:16.423Z,6.80
2017-12-23T21:55:26.767Z,6.70
2017-12-23T21:58:36.678Z,6.70
2017-12-23T22:01:46.869Z,6.70
2017-12-23T22:04:56.731Z,6.70
2017-12-23T22:08:08.148Z,6.70
2017-12-23T22:11:18.482Z,6.70
2017-12-23T22:14:28.320Z,6.70
2017-12-23T22:17:38.695Z,6.70
2017-12-23T22:20:48.824Z,6.70
2017-12-23T22:23:59.439Z,6.70
2017-12-23T22:27:09.588Z,6.70
2017-12-23T22:30:20.598Z,6.70
2017-12-23T22:33:31.192Z,6.70
2017-12-23T22:36:41.200Z,6.70
2017-12-23T22:39:51.108Z,6.70
2017-12-23T22:43:01.733Z,6.70
2017-12-23T22:46:12.185Z,6.70
2017-12-23T22:49:22.659Z,6.70
2017-12-23T22:52:32.849Z,6.70
2017-12-23T22:55:46.664Z,6.70
2017-12-23T22:58:56.914Z,6.70
2017-12-23T23:02:06.680Z,6.70
2017-12-23T23:05:22.310Z,6.70
2017-12-23T23:08:33.172Z,6.70
2017-12-23T23:11:43.357Z,6.70
2017-12-23T23:14:53.582Z,6.70
2017-12-23T23:18:03.702Z,6.70
2017-12-23T23:21:14.734Z,6.70
2017-12-23T23:24:25.107Z,6.70
2017-12-23T23:27:35.364Z,6.70
2017-12-23T23:30:46.219Z,6.70
2017-12-23T23:33:56.238Z,6.80
2017-12-23T23:37:06.627Z,6.80
2017-12-23T23:40:17.278Z,6.70
2017-12-23T23:43:27.224Z,6.80
2017-12-23T23:46:37.867Z,6.80
2017-12-23T23:49:48.077Z,6.70
2017-12-23T23:52:57.890Z,6.80
2017-12-23T23:56:08.312Z,6.80
2017-12-23T23:59:19.065Z,6.80
